createdAt,value
2022-11-04T00:03:12.798Z,100038.88
2022-11-04T00:08:15.795Z,100038.81
2022-11-04T00:13:17.452Z,100037.97
2022-11-04T00:18:19.441Z,100027.47
2022-11-04T00:23:22.807Z,100025.78
2022-11-04T00:28:24.844Z,100021.47
2022-11-04T00:33:27.424Z,100025.94
2022-11-04T00:38:31.002Z,100025.16
2022-11-04T00:43:32.891Z,100019.97
2022-11-04T00:48:35.181Z,100012.97
2022-11-04T00:53:38.154Z,99998.03
2022-11-04T00:58:40.013Z,100004.19
2022-11-04T01:03:41.945Z,100008.56
2022-11-04T01:08:45.002Z,100005.03
2022-11-04T01:13:50.106Z,100003.19
2022-11-04T01:18:51.765Z,99985.63
2022-11-04T01:23:55.285Z,99996.09
2022-11-04T01:28:57.833Z,100011.06
2022-11-04T01:33:59.801Z,100004.97
2022-11-04T01:39:03.116Z,99989.97
2022-11-04T01:44:46.589Z,99988.19
2022-11-04T01:49:52.284Z,99990.75
2022-11-04T01:54:59.914Z,99983.66
2022-11-04T02:00:05.254Z,99972.25
2022-11-04T02:05:07.795Z,99976.59
2022-11-04T02:10:12.351Z,99966.97
2022-11-04T02:15:14.463Z,99965.25
2022-11-04T02:20:30.615Z,99957.31
2022-11-04T02:26:08.001Z,99945.91
2022-11-04T02:31:19.022Z,99938.91
2022-11-04T02:36:30.514Z,99927.38
2022-11-04T02:41:41.120Z,99921.06
2022-11-04T02:46:51.270Z,99938.63
2022-11-04T02:52:01.410Z,99933.34
2022-11-04T02:57:07.733Z,99918.34
2022-11-04T03:02:17.388Z,99911.13
2022-11-04T03:07:24.966Z,99915.38
2022-11-04T03:12:32.896Z,99937.31
2022-11-04T03:17:43.997Z,99954.97
2022-11-04T03:22:46.081Z,99959.38
2022-11-04T03:27:54.566Z,99960.28
2022-11-04T03:33:03.912Z,99965.56
2022-11-04T03:38:05.931Z,99970.78
2022-11-04T03:43:12.019Z,99976.03
2022-11-04T03:48:15.410Z,99960.22
2022-11-04T03:53:20.558Z,99970.78
2022-11-04T03:58:33.783Z,99978.69
2022-11-04T04:03:47.010Z,99973.38
2022-11-04T04:08:53.471Z,99971.59
2022-11-04T04:14:09.623Z,99963.69
2022-11-04T04:19:16.735Z,99953.06
2022-11-04T04:24:22.883Z,99957.28
2022-11-04T04:29:26.155Z,99959.09
2022-11-04T04:34:31.606Z,99959.16
2022-11-04T04:39:38.905Z,99963.53
2022-11-04T04:44:42.867Z,99958.22
2022-11-04T04:49:51.400Z,99968.78
2022-11-04T04:54:53.707Z,99972.31
2022-11-04T04:59:55.319Z,99969.66
2022-11-04T05:04:58.332Z,99967.84
2022-11-04T05:10:00.373Z,99978.41
2022-11-04T05:15:02.009Z,99978.41
2022-11-04T05:20:05.854Z,99976.59
2022-11-04T05:25:08.039Z,99988.88
2022-11-04T05:30:10.703Z,99991.50
2022-11-04T05:35:13.790Z,100000.25
2022-11-04T05:40:15.493Z,100009.88
2022-11-04T05:45:17.294Z,100004.59
2022-11-04T05:50:20.288Z,100000.94
2022-11-04T05:55:22.630Z,100016.66
2022-11-04T06:00:24.981Z,100023.63
2022-11-04T06:05:28.123Z,100032.41
2022-11-04T06:10:29.790Z,100043.91
2022-11-04T06:15:31.753Z,100037.66
2022-11-04T06:20:34.728Z,100053.34
2022-11-04T06:25:36.361Z,100062.13
2022-11-04T06:30:38.245Z,100072.66
2022-11-04T06:35:41.395Z,100078.72
2022-11-04T06:40:43.093Z,100091.88
2022-11-04T06:45:45.256Z,100085.69
2022-11-04T06:50:48.759Z,100097.06
2022-11-04T06:55:51.690Z,100096.94
2022-11-04T07:00:53.939Z,100109.06
2022-11-04T07:05:57.892Z,100095.56
2022-11-04T07:10:59.999Z,100084.56
2022-11-04T07:16:04.978Z,100083.28
2022-11-04T07:21:10.250Z,100091.91
2022-11-04T07:26:12.574Z,100082.91
2022-11-04T07:31:14.827Z,100076.72
2022-11-04T07:36:18.709Z,100085.47
2022-11-04T07:41:21.338Z,100080.81
2022-11-04T07:46:23.070Z,100075.25
2022-11-04T07:51:27.280Z,100072.53
2022-11-04T07:56:31.628Z,100073.22
2022-11-04T08:01:33.473Z,100058.94
2022-11-04T08:06:37.164Z,100060.53
2022-11-04T08:11:39.153Z,100054.97
2022-11-04T08:16:40.848Z,100071.66
2022-11-04T08:21:43.865Z,100098.03
2022-11-04T08:26:45.928Z,100105.97
2022-11-04T08:31:48.043Z,100113.75
2022-11-04T08:36:51.010Z,100118.13
2022-11-04T08:41:53.429Z,100109.56
2022-11-04T08:46:55.504Z,100112.91
2022-11-04T08:51:59.306Z,100110.66
2022-11-04T08:57:01.422Z,100110.69
2022-11-04T09:02:03.172Z,100114.97
2022-11-04T09:07:08.316Z,100111.69
2022-11-04T09:12:10.997Z,100113.47
2022-11-04T09:17:12.994Z,100105.97
2022-11-04T09:22:16.573Z,100106.03
2022-11-04T09:27:18.862Z,100098.16
2022-11-04T09:32:20.531Z,100089.22
2022-11-04T09:37:23.610Z,100087.47
2022-11-04T09:42:41.796Z,100095.56
2022-11-04T09:47:46.030Z,100089.22
2022-11-04T09:52:54.573Z,100093.72
2022-11-04T09:57:58.779Z,100119.19
2022-11-04T10:03:21.902Z,100129.34
2022-11-04T10:08:45.298Z,100132.88
2022-11-04T10:14:02.437Z,100121.38
2022-11-04T10:19:25.296Z,100119.53
2022-11-04T10:24:41.197Z,100125.50
2022-11-04T10:29:47.356Z,100126.06
2022-11-04T10:34:53.949Z,100145.88
2022-11-04T10:40:05.859Z,100144.91
2022-11-04T10:45:12.845Z,100152.75
2022-11-04T10:50:28.895Z,100157.94
2022-11-04T10:55:38.768Z,100161.19
2022-11-04T11:00:41.532Z,100158.81
2022-11-04T11:05:43.634Z,100183.06
2022-11-04T11:10:52.078Z,100196.41
2022-11-04T11:16:06.536Z,100210.72
2022-11-04T11:21:12.490Z,100219.81
2022-11-04T11:26:19.323Z,100226.84
2022-11-04T11:31:21.480Z,100234.94
2022-11-04T11:36:25.112Z,100219.84
2022-11-04T11:41:29.197Z,100208.38
2022-11-04T11:46:33.335Z,100203.88
2022-11-04T11:51:37.034Z,100198.75
2022-11-04T11:57:07.218Z,100191.78
2022-11-04T12:02:25.964Z,100196.59
2022-11-04T12:13:22.963Z,100191.16
2022-11-04T12:18:49.493Z,100199.22
2022-11-04T12:23:55.952Z,100189.69
2022-11-04T12:29:20.568Z,100194.13
2022-11-04T12:34:32.757Z,100201.22
2022-11-04T12:39:53.286Z,100200.25
2022-11-04T12:45:07.862Z,100204.75
2022-11-04T12:50:21.978Z,100204.78
2022-11-04T12:55:37.246Z,100220.19
2022-11-04T13:00:48.209Z,100229.94
2022-11-04T13:05:54.366Z,100237.16
2022-11-04T13:11:01.760Z,100238.97
2022-11-04T13:16:09.751Z,100238.97
2022-11-04T13:21:15.613Z,100240.81
2022-11-04T13:26:18.263Z,100242.66
2022-11-04T13:31:30.752Z,100243.66
2022-11-04T13:36:40.888Z,100248.06
2022-11-04T13:42:09.758Z,100251.38
2022-11-04T13:47:22.249Z,100231.81
2022-11-04T13:52:29.351Z,100236.00
2022-11-04T13:57:52.250Z,100230.63
2022-11-04T14:02:56.100Z,100227.03
2022-11-04T14:08:11.071Z,100222.75
2022-11-04T14:13:44.571Z,100227.22
2022-11-04T14:18:49.896Z,100231.00
2022-11-04T14:23:54.406Z,100238.97
2022-11-04T14:29:03.602Z,100246.91
2022-11-04T14:34:08.088Z,100247.88
2022-11-04T14:39:23.185Z,100259.56
2022-11-04T14:44:30.717Z,100274.78
2022-11-04T14:49:46.980Z,100276.63
2022-11-04T14:54:50.011Z,100283.00
2022-11-04T14:59:51.704Z,100281.34
2022-11-04T15:04:58.778Z,100281.38
2022-11-04T15:10:02.598Z,100286.78
2022-11-04T15:15:33.154Z,100277.06
2022-11-04T15:20:45.050Z,100288.66
2022-11-04T15:25:49.065Z,100294.06
2022-11-04T15:30:59.863Z,100308.28
2022-11-04T15:36:03.514Z,100318.94
2022-11-04T15:41:05.676Z,100318.09
2022-11-04T15:46:18.025Z,100313.75
2022-11-04T15:51:23.533Z,100301.47
2022-11-04T15:56:28.034Z,100299.66
2022-11-04T16:01:29.864Z,100307.66
2022-11-04T16:06:35.977Z,100320.06
2022-11-04T16:11:39.196Z,100326.28
2022-11-04T16:16:47.947Z,100320.88
2022-11-04T16:21:59.471Z,100328.00
2022-11-04T16:27:02.028Z,100336.88
2022-11-04T16:32:07.607Z,100346.56
2022-11-04T16:37:10.937Z,100350.13
2022-11-04T16:42:14.317Z,100355.47
2022-11-04T16:47:17.708Z,100354.59
2022-11-04T16:52:24.126Z,100354.59
2022-11-04T16:57:26.661Z,100369.66
2022-11-04T17:02:31.170Z,100371.31
2022-11-04T17:07:52.143Z,100370.41
2022-11-04T17:12:55.786Z,100375.72
2022-11-04T17:17:57.422Z,100372.94
2022-11-04T17:23:00.868Z,100377.50
2022-11-04T17:28:02.838Z,100380.88
2022-11-04T17:33:04.926Z,100387.28
2022-11-04T17:38:10.031Z,100389.88
2022-11-04T17:43:12.880Z,100405.78
2022-11-04T17:48:14.944Z,100408.56
2022-11-04T17:53:20.614Z,100408.41
2022-11-04T17:58:22.259Z,100407.47
2022-11-04T18:03:24.276Z,100410.25
2022-11-04T18:08:27.310Z,100411.13
2022-11-04T18:13:29.432Z,100410.31
2022-11-04T18:18:31.302Z,100412.88
2022-11-04T18:23:35.003Z,100420.66
2022-11-04T18:28:37.364Z,100432.19
2022-11-04T18:33:39.079Z,100437.50
2022-11-04T18:38:42.089Z,100433.13
2022-11-04T18:43:44.031Z,100437.56
2022-11-04T18:48:49.058Z,100437.56
2022-11-04T18:53:52.864Z,100440.84
2022-11-04T18:58:54.915Z,100447.16
2022-11-04T19:03:57.817Z,100437.31
2022-11-04T19:09:13.344Z,100446.84
2022-11-04T19:14:27.090Z,100448.59
2022-11-04T19:19:29.142Z,100458.88
2022-11-04T19:24:32.267Z,100460.72
2022-11-04T19:29:34.327Z,100459.75
2022-11-04T19:34:37.496Z,100463.38
2022-11-04T19:39:41.585Z,100457.50
2022-11-04T19:44:44.247Z,100463.97
2022-11-04T19:49:46.295Z,100459.38
2022-11-04T19:54:49.968Z,100465.28
2022-11-04T19:59:51.737Z,100461.69
2022-11-04T20:04:53.609Z,100472.00
2022-11-04T20:09:56.700Z,100481.69
2022-11-04T20:14:58.706Z,100482.63
2022-11-04T20:20:00.918Z,100483.44
2022-11-04T20:25:04.687Z,100493.06
2022-11-04T20:30:07.619Z,100500.28
2022-11-04T20:35:09.459Z,100499.47
2022-11-04T20:40:13.623Z,100499.41
2022-11-04T20:45:16.391Z,100501.31
2022-11-04T20:50:18.232Z,100504.94
2022-11-04T20:55:22.493Z,100511.00
2022-11-04T21:00:24.689Z,100517.28
2022-11-04T21:05:27.016Z,100524.44
2022-11-04T21:10:33.041Z,100527.09
2022-11-04T21:15:36.593Z,100528.84
2022-11-04T21:20:45.268Z,100524.44
2022-11-04T21:25:51.593Z,100532.34
2022-11-04T21:30:54.715Z,100530.75
2022-11-04T21:36:02.678Z,100533.50
2022-11-04T21:41:09.910Z,100539.66
2022-11-04T21:46:14.803Z,100552.06
2022-11-04T21:51:23.509Z,100546.88
2022-11-04T21:56:33.041Z,100550.31
2022-11-04T22:01:38.366Z,100557.47
2022-11-04T22:06:41.382Z,100553.06
2022-11-04T22:11:52.840Z,100563.63
2022-11-04T22:17:06.975Z,100569.91
2022-11-04T22:22:10.673Z,100572.63
2022-11-04T22:27:13.892Z,100575.19
2022-11-04T22:32:16.127Z,100576.13
2022-11-04T22:37:18.171Z,100575.28
2022-11-04T22:42:21.548Z,100579.66
2022-11-04T22:47:23.583Z,100579.72
2022-11-04T22:52:25.683Z,100581.47
2022-11-04T22:57:28.987Z,100580.56
2022-11-04T23:02:36.634Z,100585.91
2022-11-04T23:07:39.890Z,100587.78
2022-11-04T23:12:43.849Z,100592.13
2022-11-04T23:17:46.432Z,100599.25
2022-11-04T23:22:48.463Z,100607.25
2022-11-04T23:27:57.142Z,100611.63
2022-11-04T23:33:01.131Z,100618.75
2022-11-04T23:38:03.887Z,100621.47
2022-11-04T23:43:07.529Z,100622.31
2022-11-04T23:48:10.766Z,100578.41
2022-11-04T23:53:13.764Z,100623.25
2022-11-04T23:58:17.234Z,100627.69
